sensor_id;sensor_type;location;lat;lon;timestamp;temperature;humidity
12125;DHT22;6126;57.908;16.490;2022-12-16T00:01:41;-6.70;93.80
12125;DHT22;6126;57.908;16.490;2022-12-16T00:04:07;-6.60;93.90
12125;DHT22;6126;57.908;16.490;2022-12-16T00:06:33;-6.80;93.80
12125;DHT22;6126;57.908;16.490;2022-12-16T00:09:00;-6.60;94.10
12125;DHT22;6126;57.908;16.490;2022-12-16T00:11:26;-6.60;93.60
12125;DHT22;6126;57.908;16.490;2022-12-16T00:13:52;-6.50;94.20
12125;DHT22;6126;57.908;16.490;2022-12-16T00:16:19;-6.60;94.20
12125;DHT22;6126;57.908;16.490;2022-12-16T00:18:46;-6.30;94.20
12125;DHT22;6126;57.908;16.490;2022-12-16T00:21:13;-6.60;94.00
12125;DHT22;6126;57.908;16.490;2022-12-16T00:23:40;-6.40;94.10
12125;DHT22;6126;57.908;16.490;2022-12-16T00:26:10;-6.30;94.20
12125;DHT22;6126;57.908;16.490;2022-12-16T00:28:37;-6.60;94.00
12125;DHT22;6126;57.908;16.490;2022-12-16T00:31:04;-6.60;94.00
12125;DHT22;6126;57.908;16.490;2022-12-16T00:33:30;-6.50;94.00
12125;DHT22;6126;57.908;16.490;2022-12-16T00:35:57;-6.50;94.40
12125;DHT22;6126;57.908;16.490;2022-12-16T00:38:25;-6.70;93.90
12125;DHT22;6126;57.908;16.490;2022-12-16T00:40:51;-6.70;94.00
12125;DHT22;6126;57.908;16.490;2022-12-16T00:43:17;-6.40;94.10
12125;DHT22;6126;57.908;16.490;2022-12-16T00:45:44;-6.50;94.20
12125;DHT22;6126;57.908;16.490;2022-12-16T00:48:10;-6.50;94.30
12125;DHT22;6126;57.908;16.490;2022-12-16T00:50:37;-6.50;94.30
12125;DHT22;6126;57.908;16.490;2022-12-16T00:53:04;-6.50;94.30
12125;DHT22;6126;57.908;16.490;2022-12-16T00:55:30;-6.40;94.30
12125;DHT22;6126;57.908;16.490;2022-12-16T00:57:57;-6.50;94.00
12125;DHT22;6126;57.908;16.490;2022-12-16T01:00:23;-6.40;94.00
12125;DHT22;6126;57.908;16.490;2022-12-16T01:02:50;-6.60;93.90
12125;DHT22;6126;57.908;16.490;2022-12-16T01:05:19;-6.50;93.90
12125;DHT22;6126;57.908;16.490;2022-12-16T01:07:47;-6.80;93.80
12125;DHT22;6126;57.908;16.490;2022-12-16T01:10:13;-6.60;93.90
12125;DHT22;6126;57.908;16.490;2022-12-16T01:12:39;-6.60;94.00
12125;DHT22;6126;57.908;16.490;2022-12-16T01:15:07;-6.70;93.90
12125;DHT22;6126;57.908;16.490;2022-12-16T01:17:33;-6.70;94.00
12125;DHT22;6126;57.908;16.490;2022-12-16T01:20:00;-7.00;94.00
12125;DHT22;6126;57.908;16.490;2022-12-16T01:22:29;-6.80;94.10
12125;DHT22;6126;57.908;16.490;2022-12-16T01:24:56;-6.70;94.20
12125;DHT22;6126;57.908;16.490;2022-12-16T01:27:23;-6.70;94.20
12125;DHT22;6126;57.908;16.490;2022-12-16T01:29:49;-6.80;94.20
12125;DHT22;6126;57.908;16.490;2022-12-16T01:32:15;-6.80;94.20
12125;DHT22;6126;57.908;16.490;2022-12-16T01:34:42;-6.90;94.10
12125;DHT22;6126;57.908;16.490;2022-12-16T01:37:11;-6.70;94.20
12125;DHT22;6126;57.908;16.490;2022-12-16T01:39:37;-6.80;94.20
12125;DHT22;6126;57.908;16.490;2022-12-16T01:42:11;-6.90;94.20
12125;DHT22;6126;57.908;16.490;2022-12-16T01:44:40;-6.60;94.20
12125;DHT22;6126;57.908;16.490;2022-12-16T01:47:13;-6.80;93.50
12125;DHT22;6126;57.908;16.490;2022-12-16T01:49:45;-6.90;93.90
12125;DHT22;6126;57.908;16.490;2022-12-16T01:52:22;-6.80;93.90
12125;DHT22;6126;57.908;16.490;2022-12-16T01:54:57;-7.10;93.80
12125;DHT22;6126;57.908;16.490;2022-12-16T01:57:41;-6.90;93.90
12125;DHT22;6126;57.908;16.490;2022-12-16T02:00:12;-7.00;94.00
12125;DHT22;6126;57.908;16.490;2022-12-16T02:02:41;-7.10;94.10
12125;DHT22;6126;57.908;16.490;2022-12-16T02:05:09;-6.90;94.20
12125;DHT22;6126;57.908;16.490;2022-12-16T02:07:59;-7.00;94.00
12125;DHT22;6126;57.908;16.490;2022-12-16T02:20:08;-7.60;93.80
12125;DHT22;6126;57.908;16.490;2022-12-16T02:31:59;-7.60;94.20
12125;DHT22;6126;57.908;16.490;2022-12-16T02:34:43;-7.40;94.20
12125;DHT22;6126;57.908;16.490;2022-12-16T02:37:36;-7.80;93.80
12125;DHT22;6126;57.908;16.490;2022-12-16T02:40:21;-7.80;93.60
12125;DHT22;6126;57.908;16.490;2022-12-16T02:43:41;-7.90;93.60
12125;DHT22;6126;57.908;16.490;2022-12-16T02:46:22;-8.10;93.70
12125;DHT22;6126;57.908;16.490;2022-12-16T02:48:53;-7.90;93.80
12125;DHT22;6126;57.908;16.490;2022-12-16T02:51:20;-7.90;93.90
12125;DHT22;6126;57.908;16.490;2022-12-16T02:53:49;-7.90;94.00
12125;DHT22;6126;57.908;16.490;2022-12-16T03:02:07;-7.50;94.50
12125;DHT22;6126;57.908;16.490;2022-12-16T03:07:26;-7.60;94.20
12125;DHT22;6126;57.908;16.490;2022-12-16T03:09:56;-7.70;94.10
12125;DHT22;6126;57.908;16.490;2022-12-16T03:12:24;-7.60;94.10
12125;DHT22;6126;57.908;16.490;2022-12-16T03:14:52;-7.60;94.10
12125;DHT22;6126;57.908;16.490;2022-12-16T03:17:21;-7.30;94.20
12125;DHT22;6126;57.908;16.490;2022-12-16T03:20:46;-7.30;94.20
12125;DHT22;6126;57.908;16.490;2022-12-16T03:22:53;-7.20;94.40
12125;DHT22;6126;57.908;16.490;2022-12-16T03:25:24;-7.20;94.50
12125;DHT22;6126;57.908;16.490;2022-12-16T03:28:10;-7.20;94.50
12125;DHT22;6126;57.908;16.490;2022-12-16T03:30:57;-6.90;94.60
12125;DHT22;6126;57.908;16.490;2022-12-16T03:33:37;-6.70;94.70
12125;DHT22;6126;57.908;16.490;2022-12-16T03:36:14;-6.80;94.60
12125;DHT22;6126;57.908;16.490;2022-12-16T03:38:46;-6.90;94.40
12125;DHT22;6126;57.908;16.490;2022-12-16T03:41:14;-6.90;94.30
12125;DHT22;6126;57.908;16.490;2022-12-16T03:43:41;-6.90;94.30
12125;DHT22;6126;57.908;16.490;2022-12-16T03:46:08;-6.70;94.30
12125;DHT22;6126;57.908;16.490;2022-12-16T03:48:35;-6.70;93.70
12125;DHT22;6126;57.908;16.490;2022-12-16T03:51:01;-6.60;94.40
12125;DHT22;6126;57.908;16.490;2022-12-16T03:53:27;-6.70;94.40
12125;DHT22;6126;57.908;16.490;2022-12-16T03:55:53;-6.50;94.50
12125;DHT22;6126;57.908;16.490;2022-12-16T03:58:19;-6.70;94.40
12125;DHT22;6126;57.908;16.490;2022-12-16T04:00:45;-6.50;94.40
12125;DHT22;6126;57.908;16.490;2022-12-16T04:03:11;-6.50;94.40
12125;DHT22;6126;57.908;16.490;2022-12-16T04:05:37;-6.60;94.30
12125;DHT22;6126;57.908;16.490;2022-12-16T04:08:03;-6.60;94.30
12125;DHT22;6126;57.908;16.490;2022-12-16T04:10:29;-6.40;94.40
12125;DHT22;6126;57.908;16.490;2022-12-16T04:13:13;-6.30;94.40
12125;DHT22;6126;57.908;16.490;2022-12-16T04:15:58;-6.40;94.30
12125;DHT22;6126;57.908;16.490;2022-12-16T04:18:42;-6.40;94.30
12125;DHT22;6126;57.908;16.490;2022-12-16T04:21:28;-6.50;94.10
12125;DHT22;6126;57.908;16.490;2022-12-16T04:24:16;-6.40;94.30
12125;DHT22;6126;57.908;16.490;2022-12-16T04:26:44;-6.60;94.20
12125;DHT22;6126;57.908;16.490;2022-12-16T04:29:29;-6.50;94.40
12125;DHT22;6126;57.908;16.490;2022-12-16T04:31:56;-6.60;94.30
12125;DHT22;6126;57.908;16.490;2022-12-16T04:34:23;-6.40;94.30
12125;DHT22;6126;57.908;16.490;2022-12-16T04:37:00;-6.20;94.40
12125;DHT22;6126;57.908;16.490;2022-12-16T04:39:46;-6.50;94.30
12125;DHT22;6126;57.908;16.490;2022-12-16T04:42:31;-6.50;94.40
12125;DHT22;6126;57.908;16.490;2022-12-16T04:45:16;-6.50;94.40
12125;DHT22;6126;57.908;16.490;2022-12-16T04:48:01;-6.40;94.40
12125;DHT22;6126;57.908;16.490;2022-12-16T04:50:45;-6.20;94.40
12125;DHT22;6126;57.908;16.490;2022-12-16T04:53:30;-6.20;94.40
12125;DHT22;6126;57.908;16.490;2022-12-16T04:56:14;-6.40;94.20
12125;DHT22;6126;57.908;16.490;2022-12-16T04:58:59;-6.50;94.20
12125;DHT22;6126;57.908;16.490;2022-12-16T05:01:43;-6.40;94.00
12125;DHT22;6126;57.908;16.490;2022-12-16T05:04:28;-6.40;94.00
12125;DHT22;6126;57.908;16.490;2022-12-16T05:07:13;-6.60;94.00
12125;DHT22;6126;57.908;16.490;2022-12-16T05:09:57;-6.70;94.10
12125;DHT22;6126;57.908;16.490;2022-12-16T05:12:41;-6.70;94.10
12125;DHT22;6126;57.908;16.490;2022-12-16T05:15:25;-6.70;93.70
12125;DHT22;6126;57.908;16.490;2022-12-16T05:18:15;-6.60;94.20
12125;DHT22;6126;57.908;16.490;2022-12-16T05:21:01;-6.70;94.10
12125;DHT22;6126;57.908;16.490;2022-12-16T05:23:46;-6.90;94.30
12125;DHT22;6126;57.908;16.490;2022-12-16T05:26:32;-6.60;94.60
12125;DHT22;6126;57.908;16.490;2022-12-16T05:29:16;-6.50;94.10
12125;DHT22;6126;57.908;16.490;2022-12-16T05:32:01;-6.40;94.70
12125;DHT22;6126;57.908;16.490;2022-12-16T05:34:45;-6.60;94.60
12125;DHT22;6126;57.908;16.490;2022-12-16T05:37:30;-6.30;94.60
12125;DHT22;6126;57.908;16.490;2022-12-16T05:40:14;-6.40;94.50
12125;DHT22;6126;57.908;16.490;2022-12-16T05:42:59;-6.00;94.70
12125;DHT22;6126;57.908;16.490;2022-12-16T05:45:43;-6.20;94.60
12125;DHT22;6126;57.908;16.490;2022-12-16T05:48:27;-6.00;94.60
12125;DHT22;6126;57.908;16.490;2022-12-16T05:51:11;-6.10;94.00
12125;DHT22;6126;57.908;16.490;2022-12-16T05:53:55;-5.90;94.60
12125;DHT22;6126;57.908;16.490;2022-12-16T05:56:40;-6.10;94.60
12125;DHT22;6126;57.908;16.490;2022-12-16T05:59:24;-6.00;94.60
12125;DHT22;6126;57.908;16.490;2022-12-16T06:02:08;-6.20;94.50
12125;DHT22;6126;57.908;16.490;2022-12-16T06:04:52;-5.90;94.70
12125;DHT22;6126;57.908;16.490;2022-12-16T06:07:37;-5.90;94.60
12125;DHT22;6126;57.908;16.490;2022-12-16T06:10:21;-5.90;94.60
12125;DHT22;6126;57.908;16.490;2022-12-16T06:13:06;-5.70;94.70
12125;DHT22;6126;57.908;16.490;2022-12-16T06:15:50;-5.80;94.10
12125;DHT22;6126;57.908;16.490;2022-12-16T06:18:34;-5.80;94.60
12125;DHT22;6126;57.908;16.490;2022-12-16T06:21:18;-5.60;94.70
12125;DHT22;6126;57.908;16.490;2022-12-16T06:24:03;-5.50;94.70
12125;DHT22;6126;57.908;16.490;2022-12-16T06:26:47;-5.90;94.50
12125;DHT22;6126;57.908;16.490;2022-12-16T06:29:31;-5.70;94.60
12125;DHT22;6126;57.908;16.490;2022-12-16T06:32:15;-5.80;94.50
12125;DHT22;6126;57.908;16.490;2022-12-16T06:35:00;-5.70;94.50
12125;DHT22;6126;57.908;16.490;2022-12-16T06:37:47;-5.70;94.50
12125;DHT22;6126;57.908;16.490;2022-12-16T06:40:32;-5.50;94.60
12125;DHT22;6126;57.908;16.490;2022-12-16T06:43:17;-5.40;94.70
12125;DHT22;6126;57.908;16.490;2022-12-16T06:46:01;-5.50;94.60
12125;DHT22;6126;57.908;16.490;2022-12-16T06:48:45;-5.30;94.70
12125;DHT22;6126;57.908;16.490;2022-12-16T06:51:30;-5.60;94.50
12125;DHT22;6126;57.908;16.490;2022-12-16T06:54:14;-5.70;94.50
12125;DHT22;6126;57.908;16.490;2022-12-16T06:56:58;-5.60;94.60
12125;DHT22;6126;57.908;16.490;2022-12-16T06:59:42;-5.20;94.70
12125;DHT22;6126;57.908;16.490;2022-12-16T07:02:26;-5.30;94.70
12125;DHT22;6126;57.908;16.490;2022-12-16T07:05:10;-5.50;94.60
12125;DHT22;6126;57.908;16.490;2022-12-16T07:07:54;-5.30;94.70
12125;DHT22;6126;57.908;16.490;2022-12-16T07:10:39;-5.40;94.60
12125;DHT22;6126;57.908;16.490;2022-12-16T07:13:23;-5.40;94.70
12125;DHT22;6126;57.908;16.490;2022-12-16T07:16:07;-5.20;94.70
12125;DHT22;6126;57.908;16.490;2022-12-16T07:18:52;-5.40;94.60
12125;DHT22;6126;57.908;16.490;2022-12-16T07:21:36;-5.30;94.70
12125;DHT22;6126;57.908;16.490;2022-12-16T07:24:21;-5.30;94.70
12125;DHT22;6126;57.908;16.490;2022-12-16T07:27:05;-5.30;94.60
12125;DHT22;6126;57.908;16.490;2022-12-16T07:29:49;-5.30;94.60
12125;DHT22;6126;57.908;16.490;2022-12-16T07:32:33;-5.10;94.70
12125;DHT22;6126;57.908;16.490;2022-12-16T07:35:17;-5.10;94.70
12125;DHT22;6126;57.908;16.490;2022-12-16T07:38:02;-5.00;94.80
12125;DHT22;6126;57.908;16.490;2022-12-16T07:41:05;-5.00;94.80
12125;DHT22;6126;57.908;16.490;2022-12-16T07:43:50;-5.20;94.10
12125;DHT22;6126;57.908;16.490;2022-12-16T07:46:34;-4.90;94.80
12125;DHT22;6126;57.908;16.490;2022-12-16T07:49:18;-5.10;95.00
12125;DHT22;6126;57.908;16.490;2022-12-16T07:52:03;-5.00;94.80
12125;DHT22;6126;57.908;16.490;2022-12-16T07:54:47;-5.00;94.70
12125;DHT22;6126;57.908;16.490;2022-12-16T07:57:31;-5.10;94.70
12125;DHT22;6126;57.908;16.490;2022-12-16T08:00:16;-5.10;94.60
12125;DHT22;6126;57.908;16.490;2022-12-16T08:03:00;-5.10;94.70
12125;DHT22;6126;57.908;16.490;2022-12-16T08:05:44;-4.70;94.90
12125;DHT22;6126;57.908;16.490;2022-12-16T08:08:39;-4.80;94.80
12125;DHT22;6126;57.908;16.490;2022-12-16T08:11:23;-4.80;94.40
12125;DHT22;6126;57.908;16.490;2022-12-16T08:14:07;-4.70;94.80
12125;DHT22;6126;57.908;16.490;2022-12-16T08:16:51;-4.80;94.80
12125;DHT22;6126;57.908;16.490;2022-12-16T08:19:35;-4.90;94.70
12125;DHT22;6126;57.908;16.490;2022-12-16T08:22:20;-4.90;94.70
12125;DHT22;6126;57.908;16.490;2022-12-16T08:25:04;-4.90;94.30
12125;DHT22;6126;57.908;16.490;2022-12-16T08:27:56;-4.70;94.90
12125;DHT22;6126;57.908;16.490;2022-12-16T08:30:40;-4.80;94.80
12125;DHT22;6126;57.908;16.490;2022-12-16T08:33:25;-4.90;94.80
12125;DHT22;6126;57.908;16.490;2022-12-16T08:36:09;-4.70;94.90
12125;DHT22;6126;57.908;16.490;2022-12-16T08:38:53;-4.70;94.90
12125;DHT22;6126;57.908;16.490;2022-12-16T08:41:38;-4.80;94.80
12125;DHT22;6126;57.908;16.490;2022-12-16T08:44:22;-4.70;94.80
12125;DHT22;6126;57.908;16.490;2022-12-16T08:47:07;-4.60;94.90
12125;DHT22;6126;57.908;16.490;2022-12-16T08:49:51;-4.50;94.90
12125;DHT22;6126;57.908;16.490;2022-12-16T08:52:35;-4.60;94.80
12125;DHT22;6126;57.908;16.490;2022-12-16T08:55:19;-4.30;95.00
12125;DHT22;6126;57.908;16.490;2022-12-16T08:58:03;-4.40;95.00
12125;DHT22;6126;57.908;16.490;2022-12-16T09:00:48;-4.60;94.90
12125;DHT22;6126;57.908;16.490;2022-12-16T09:03:33;-4.40;95.00
12125;DHT22;6126;57.908;16.490;2022-12-16T09:06:18;-4.20;95.10
12125;DHT22;6126;57.908;16.490;2022-12-16T09:09:02;-4.40;94.90
12125;DHT22;6126;57.908;16.490;2022-12-16T09:11:46;-4.40;94.90
12125;DHT22;6126;57.908;16.490;2022-12-16T09:14:30;-4.20;95.00
12125;DHT22;6126;57.908;16.490;2022-12-16T09:17:14;-4.40;95.00
12125;DHT22;6126;57.908;16.490;2022-12-16T09:19:58;-4.10;95.10
12125;DHT22;6126;57.908;16.490;2022-12-16T09:22:42;-4.10;94.60
12125;DHT22;6126;57.908;16.490;2022-12-16T09:25:26;-4.00;95.10
12125;DHT22;6126;57.908;16.490;2022-12-16T09:28:18;-4.40;94.90
12125;DHT22;6126;57.908;16.490;2022-12-16T09:31:02;-4.30;95.00
12125;DHT22;6126;57.908;16.490;2022-12-16T09:33:46;-4.20;95.00
12125;DHT22;6126;57.908;16.490;2022-12-16T09:36:30;-4.20;94.50
12125;DHT22;6126;57.908;16.490;2022-12-16T09:39:14;-4.20;95.00
12125;DHT22;6126;57.908;16.490;2022-12-16T09:42:31;-4.10;95.00
12125;DHT22;6126;57.908;16.490;2022-12-16T09:51:39;-3.80;95.00
12125;DHT22;6126;57.908;16.490;2022-12-16T09:54:28;-4.10;95.00
12125;DHT22;6126;57.908;16.490;2022-12-16T09:57:17;-4.00;95.10
12125;DHT22;6126;57.908;16.490;2022-12-16T10:00:05;-3.90;95.20
12125;DHT22;6126;57.908;16.490;2022-12-16T10:02:57;-4.00;95.10
12125;DHT22;6126;57.908;16.490;2022-12-16T10:05:59;-4.00;95.10
12125;DHT22;6126;57.908;16.490;2022-12-16T10:15:30;-3.70;95.10
12125;DHT22;6126;57.908;16.490;2022-12-16T10:27:48;-4.10;95.00
12125;DHT22;6126;57.908;16.490;2022-12-16T10:30:35;-4.10;95.00
12125;DHT22;6126;57.908;16.490;2022-12-16T10:33:24;-4.00;95.10
12125;DHT22;6126;57.908;16.490;2022-12-16T10:36:18;-4.10;95.00
12125;DHT22;6126;57.908;16.490;2022-12-16T10:39:20;-4.10;95.10
12125;DHT22;6126;57.908;16.490;2022-12-16T10:42:39;-3.80;95.20
12125;DHT22;6126;57.908;16.490;2022-12-16T10:45:34;-4.00;95.00
12125;DHT22;6126;57.908;16.490;2022-12-16T10:48:26;-4.10;94.90
12125;DHT22;6126;57.908;16.490;2022-12-16T10:51:16;-4.00;95.00
12125;DHT22;6126;57.908;16.490;2022-12-16T10:54:41;-4.00;95.00
12125;DHT22;6126;57.908;16.490;2022-12-16T11:01:00;-4.10;95.10
12125;DHT22;6126;57.908;16.490;2022-12-16T11:07:33;-4.00;95.20
12125;DHT22;6126;57.908;16.490;2022-12-16T11:13:27;-3.90;95.20
12125;DHT22;6126;57.908;16.490;2022-12-16T11:16:21;-3.70;95.60
12125;DHT22;6126;57.908;16.490;2022-12-16T11:19:26;-3.90;95.10
12125;DHT22;6126;57.908;16.490;2022-12-16T11:22:18;-3.80;95.10
12125;DHT22;6126;57.908;16.490;2022-12-16T11:25:19;-3.80;95.20
12125;DHT22;6126;57.908;16.490;2022-12-16T11:28:12;-3.90;95.10
12125;DHT22;6126;57.908;16.490;2022-12-16T11:31:04;-3.90;95.10
12125;DHT22;6126;57.908;16.490;2022-12-16T11:33:51;-3.90;95.10
12125;DHT22;6126;57.908;16.490;2022-12-16T11:36:38;-4.00;95.10
12125;DHT22;6126;57.908;16.490;2022-12-16T11:39:26;-3.80;95.30
12125;DHT22;6126;57.908;16.490;2022-12-16T11:42:23;-3.90;95.20
12125;DHT22;6126;57.908;16.490;2022-12-16T11:45:17;-3.80;95.20
12125;DHT22;6126;57.908;16.490;2022-12-16T11:48:28;-3.60;95.30
12125;DHT22;6126;57.908;16.490;2022-12-16T11:51:23;-3.90;94.60
12125;DHT22;6126;57.908;16.490;2022-12-16T11:54:32;-3.90;95.20
12125;DHT22;6126;57.908;16.490;2022-12-16T11:57:24;-3.80;95.20
12125;DHT22;6126;57.908;16.490;2022-12-16T12:00:43;-3.70;95.20
12125;DHT22;6126;57.908;16.490;2022-12-16T12:03:41;-3.40;95.20
12125;DHT22;6126;57.908;16.490;2022-12-16T12:09:33;-3.50;95.20
12125;DHT22;6126;57.908;16.490;2022-12-16T12:12:41;-3.50;95.20
12125;DHT22;6126;57.908;16.490;2022-12-16T12:16:00;-3.50;95.20
12125;DHT22;6126;57.908;16.490;2022-12-16T12:19:07;-3.50;95.30
12125;DHT22;6126;57.908;16.490;2022-12-16T12:22:18;-3.80;95.10
12125;DHT22;6126;57.908;16.490;2022-12-16T12:25:43;-3.70;95.10
12125;DHT22;6126;57.908;16.490;2022-12-16T12:31:46;-3.90;95.00
12125;DHT22;6126;57.908;16.490;2022-12-16T12:41:24;-3.80;94.70
12125;DHT22;6126;57.908;16.490;2022-12-16T12:47:18;-3.80;95.20
12125;DHT22;6126;57.908;16.490;2022-12-16T12:50:35;-3.50;95.40
12125;DHT22;6126;57.908;16.490;2022-12-16T12:53:47;-3.60;95.30
12125;DHT22;6126;57.908;16.490;2022-12-16T12:56:44;-3.30;95.40
12125;DHT22;6126;57.908;16.490;2022-12-16T13:00:15;-3.50;95.30
12125;DHT22;6126;57.908;16.490;2022-12-16T13:06:38;-3.70;95.50
12125;DHT22;6126;57.908;16.490;2022-12-16T13:09:36;-3.50;95.30
12125;DHT22;6126;57.908;16.490;2022-12-16T13:12:27;-3.60;95.30
12125;DHT22;6126;57.908;16.490;2022-12-16T13:15:39;-3.70;95.20
12125;DHT22;6126;57.908;16.490;2022-12-16T13:18:31;-3.60;95.30
12125;DHT22;6126;57.908;16.490;2022-12-16T13:27:24;-3.50;95.40
12125;DHT22;6126;57.908;16.490;2022-12-16T13:33:02;-3.60;95.30
12125;DHT22;6126;57.908;16.490;2022-12-16T13:35:58;-3.60;95.20
12125;DHT22;6126;57.908;16.490;2022-12-16T13:38:51;-3.60;95.30
12125;DHT22;6126;57.908;16.490;2022-12-16T13:48:24;-3.60;95.20
12125;DHT22;6126;57.908;16.490;2022-12-16T13:50:44;-3.50;95.30
12125;DHT22;6126;57.908;16.490;2022-12-16T13:53:48;-3.50;95.30
12125;DHT22;6126;57.908;16.490;2022-12-16T13:56:44;-3.30;95.30
12125;DHT22;6126;57.908;16.490;2022-12-16T13:59:32;-3.60;95.20
12125;DHT22;6126;57.908;16.490;2022-12-16T14:02:29;-3.50;95.20
12125;DHT22;6126;57.908;16.490;2022-12-16T14:05:26;-3.50;95.30
12125;DHT22;6126;57.908;16.490;2022-12-16T14:08:18;-3.50;95.30
12125;DHT22;6126;57.908;16.490;2022-12-16T14:11:13;-3.60;95.20
12125;DHT22;6126;57.908;16.490;2022-12-16T14:14:43;-3.50;95.30
12125;DHT22;6126;57.908;16.490;2022-12-16T14:17:42;-3.60;95.20
12125;DHT22;6126;57.908;16.490;2022-12-16T14:20:54;-3.50;95.30
12125;DHT22;6126;57.908;16.490;2022-12-16T14:23:59;-3.30;95.40
12125;DHT22;6126;57.908;16.490;2022-12-16T14:26:49;-3.60;95.20
12125;DHT22;6126;57.908;16.490;2022-12-16T14:29:34;-3.10;95.50
12125;DHT22;6126;57.908;16.490;2022-12-16T14:32:28;-3.40;95.40
12125;DHT22;6126;57.908;16.490;2022-12-16T14:35:21;-3.10;95.50
12125;DHT22;6126;57.908;16.490;2022-12-16T14:38:27;-3.10;95.50
12125;DHT22;6126;57.908;16.490;2022-12-16T14:41:17;-3.50;95.30
12125;DHT22;6126;57.908;16.490;2022-12-16T14:44:17;-3.60;95.20
12125;DHT22;6126;57.908;16.490;2022-12-16T14:47:03;-3.60;95.20
12125;DHT22;6126;57.908;16.490;2022-12-16T14:49:50;-3.50;95.30
12125;DHT22;6126;57.908;16.490;2022-12-16T14:52:36;-3.50;95.30
12125;DHT22;6126;57.908;16.490;2022-12-16T14:55:33;-3.50;95.30
12125;DHT22;6126;57.908;16.490;2022-12-16T14:58:23;-3.30;95.40
12125;DHT22;6126;57.908;16.490;2022-12-16T15:01:20;-3.60;95.20
12125;DHT22;6126;57.908;16.490;2022-12-16T15:04:18;-3.60;95.60
12125;DHT22;6126;57.908;16.490;2022-12-16T15:07:06;-3.30;95.40
12125;DHT22;6126;57.908;16.490;2022-12-16T15:09:56;-3.40;95.40
12125;DHT22;6126;57.908;16.490;2022-12-16T15:12:43;-3.50;95.40
12125;DHT22;6126;57.908;16.490;2022-12-16T15:15:46;-3.40;95.40
12125;DHT22;6126;57.908;16.490;2022-12-16T15:18:43;-3.40;95.40
12125;DHT22;6126;57.908;16.490;2022-12-16T15:21:32;-3.10;95.50
12125;DHT22;6126;57.908;16.490;2022-12-16T15:24:19;-3.20;95.50
12125;DHT22;6126;57.908;16.490;2022-12-16T15:27:34;-3.50;95.30
12125;DHT22;6126;57.908;16.490;2022-12-16T15:30:39;-3.10;95.50
12125;DHT22;6126;57.908;16.490;2022-12-16T15:33:28;-3.40;95.40
12125;DHT22;6126;57.908;16.490;2022-12-16T15:36:34;-3.50;95.20
12125;DHT22;6126;57.908;16.490;2022-12-16T15:39:35;-3.40;95.30
12125;DHT22;6126;57.908;16.490;2022-12-16T15:42:29;-3.50;95.30
12125;DHT22;6126;57.908;16.490;2022-12-16T15:45:27;-3.20;95.50
12125;DHT22;6126;57.908;16.490;2022-12-16T15:48:25;-3.20;95.50
12125;DHT22;6126;57.908;16.490;2022-12-16T15:51:39;-3.40;95.40
12125;DHT22;6126;57.908;16.490;2022-12-16T15:54:26;-3.40;95.40
12125;DHT22;6126;57.908;16.490;2022-12-16T15:57:28;-3.60;95.30
12125;DHT22;6126;57.908;16.490;2022-12-16T16:03:28;-3.20;95.50
12125;DHT22;6126;57.908;16.490;2022-12-16T16:06:24;-3.40;95.40
12125;DHT22;6126;57.908;16.490;2022-12-16T16:09:26;-3.50;95.40
12125;DHT22;6126;57.908;16.490;2022-12-16T16:12:14;-3.60;95.30
12125;DHT22;6126;57.908;16.490;2022-12-16T16:15:01;-3.60;95.30
12125;DHT22;6126;57.908;16.490;2022-12-16T16:17:51;-3.60;95.30
12125;DHT22;6126;57.908;16.490;2022-12-16T16:20:38;-3.30;95.50
12125;DHT22;6126;57.908;16.490;2022-12-16T16:23:23;-3.60;95.30
12125;DHT22;6126;57.908;16.490;2022-12-16T16:26:13;-3.70;95.30
12125;DHT22;6126;57.908;16.490;2022-12-16T16:29:18;-3.60;95.40
12125;DHT22;6126;57.908;16.490;2022-12-16T16:32:02;-3.60;95.40
12125;DHT22;6126;57.908;16.490;2022-12-16T16:34:47;-3.40;95.50
12125;DHT22;6126;57.908;16.490;2022-12-16T16:37:31;-3.60;95.40
12125;DHT22;6126;57.908;16.490;2022-12-16T16:43:20;-3.70;95.40
12125;DHT22;6126;57.908;16.490;2022-12-16T16:49:31;-3.60;95.30
12125;DHT22;6126;57.908;16.490;2022-12-16T16:52:21;-3.80;95.30
12125;DHT22;6126;57.908;16.490;2022-12-16T16:55:08;-3.80;95.40
12125;DHT22;6126;57.908;16.490;2022-12-16T16:57:57;-3.80;95.70
12125;DHT22;6126;57.908;16.490;2022-12-16T17:00:42;-3.80;95.40
12125;DHT22;6126;57.908;16.490;2022-12-16T17:03:26;-3.80;95.50
12125;DHT22;6126;57.908;16.490;2022-12-16T17:06:11;-3.50;95.50
12125;DHT22;6126;57.908;16.490;2022-12-16T17:08:55;-3.70;95.50
12125;DHT22;6126;57.908;16.490;2022-12-16T17:11:39;-3.80;95.40
12125;DHT22;6126;57.908;16.490;2022-12-16T17:14:24;-3.90;95.30
12125;DHT22;6126;57.908;16.490;2022-12-16T17:17:09;-4.00;95.30
12125;DHT22;6126;57.908;16.490;2022-12-16T17:19:53;-3.80;95.50
12125;DHT22;6126;57.908;16.490;2022-12-16T17:22:38;-3.80;95.50
12125;DHT22;6126;57.908;16.490;2022-12-16T17:25:22;-3.80;95.50
12125;DHT22;6126;57.908;16.490;2022-12-16T17:28:09;-3.50;95.60
12125;DHT22;6126;57.908;16.490;2022-12-16T17:30:54;-3.80;95.50
12125;DHT22;6126;57.908;16.490;2022-12-16T17:33:39;-3.50;95.60
12125;DHT22;6126;57.908;16.490;2022-12-16T17:36:23;-3.80;95.50
12125;DHT22;6126;57.908;16.490;2022-12-16T17:39:08;-3.60;95.60
12125;DHT22;6126;57.908;16.490;2022-12-16T17:41:53;-3.50;95.60
12125;DHT22;6126;57.908;16.490;2022-12-16T17:44:38;-3.80;95.40
12125;DHT22;6126;57.908;16.490;2022-12-16T17:47:22;-3.60;95.50
12125;DHT22;6126;57.908;16.490;2022-12-16T17:50:07;-3.50;95.90
12125;DHT22;6126;57.908;16.490;2022-12-16T17:52:54;-3.70;95.50
12125;DHT22;6126;57.908;16.490;2022-12-16T17:55:40;-3.70;95.50
12125;DHT22;6126;57.908;16.490;2022-12-16T17:58:50;-3.90;95.40
12125;DHT22;6126;57.908;16.490;2022-12-16T18:01:35;-3.80;95.40
12125;DHT22;6126;57.908;16.490;2022-12-16T18:04:19;-3.80;95.40
12125;DHT22;6126;57.908;16.490;2022-12-16T18:07:03;-3.80;95.50
12125;DHT22;6126;57.908;16.490;2022-12-16T18:09:47;-3.70;95.50
12125;DHT22;6126;57.908;16.490;2022-12-16T18:12:31;-3.60;95.60
12125;DHT22;6126;57.908;16.490;2022-12-16T18:15:16;-3.80;95.50
12125;DHT22;6126;57.908;16.490;2022-12-16T18:18:01;-3.70;95.50
12125;DHT22;6126;57.908;16.490;2022-12-16T18:20:45;-3.70;95.90
12125;DHT22;6126;57.908;16.490;2022-12-16T18:23:30;-3.80;95.40
12125;DHT22;6126;57.908;16.490;2022-12-16T18:26:15;-3.50;95.50
12125;DHT22;6126;57.908;16.490;2022-12-16T18:28:59;-3.60;95.60
12125;DHT22;6126;57.908;16.490;2022-12-16T18:31:47;-3.50;95.60
12125;DHT22;6126;57.908;16.490;2022-12-16T18:34:32;-3.50;95.60
12125;DHT22;6126;57.908;16.490;2022-12-16T18:37:16;-3.70;95.60
12125;DHT22;6126;57.908;16.490;2022-12-16T18:40:01;-3.60;95.60
12125;DHT22;6126;57.908;16.490;2022-12-16T18:42:45;-3.70;95.50
12125;DHT22;6126;57.908;16.490;2022-12-16T18:45:29;-3.60;95.60
12125;DHT22;6126;57.908;16.490;2022-12-16T18:48:14;-3.70;95.60
12125;DHT22;6126;57.908;16.490;2022-12-16T18:50:59;-3.70;95.50
12125;DHT22;6126;57.908;16.490;2022-12-16T18:53:44;-3.70;95.50
12125;DHT22;6126;57.908;16.490;2022-12-16T18:56:28;-3.70;95.50
12125;DHT22;6126;57.908;16.490;2022-12-16T18:59:13;-3.60;95.60
12125;DHT22;6126;57.908;16.490;2022-12-16T19:01:57;-3.70;95.50
12125;DHT22;6126;57.908;16.490;2022-12-16T19:04:42;-3.80;94.90
12125;DHT22;6126;57.908;16.490;2022-12-16T19:07:26;-3.80;95.50